WetterOnline ( https://www.wetteronline.de )

Wetter aktuell Mannheim

Aktuelles Wetter: Mannheim (100m)

6-stündlich | Neueste Meldungen
Ortszeit Temperatur Wetter
Sa, 28.01. 7:00 2.4° C bedeckt
Sa, 28.01. 1:00 3.0° C bedeckt
Fr, 27.01. 19:00 3.5° C bedeckt
Fr, 27.01. 13:00 2.4° C bedeckt
Fr, 27.01. 7:00 -0.1° C bedeckt
Fr, 27.01. 1:00 -0.8° C Schneegriesel
Do, 26.01. 19:00 -0.6° C bedeckt
Do, 26.01. 13:00 -0.2° C bedeckt
Ortszeit Temperatur Wetter
Sa, 28.01. 10:30 2.7° C bedeckt
Sa, 28.01. 10:20 2.7° C bedeckt
Sa, 28.01. 10:10 2.5° C bewölkt
Sa, 28.01. 10:00 2.5° C bedeckt
Sa, 28.01. 9:50 2.5° C bedeckt
Sa, 28.01. 9:40 2.5° C bedeckt
Sa, 28.01. 9:30 2.4° C bedeckt
Sa, 28.01. 9:00 2.3° C bedeckt
Sa, 28.01. 8:30 2.3° C bedeckt
Sa, 28.01. 8:00 2.3° C bewölkt
Sa, 28.01. 7:30 2.4° C bedeckt
Ortszeit Relative Feuchte Sichtweite
Sa, 28.01. 7:00 80% 60 km
Sa, 28.01. 1:00 82% 55 km
Fr, 27.01. 19:00 77% 60 km
Fr, 27.01. 13:00 76% 30 km
Fr, 27.01. 7:00 93% 9 km
Fr, 27.01. 1:00 94% 7 km
Do, 26.01. 19:00 79% 30 km
Do, 26.01. 13:00 83% 40 km
Ortszeit Relative Feuchte Sichtweite
Sa, 28.01. 10:30 78% 45 km
Sa, 28.01. 10:20 78% -
Sa, 28.01. 10:10 78% -
Sa, 28.01. 10:00 79% 45 km
Sa, 28.01. 9:50 79% -
Sa, 28.01. 9:40 78% -
Sa, 28.01. 9:30 79% 40 km
Sa, 28.01. 9:00 80% 50 km
Sa, 28.01. 8:30 81% 55 km
Sa, 28.01. 8:00 80% 50 km
Sa, 28.01. 7:30 80% 55 km
Ortszeit Niederschlagsmenge Niederschlagsart
Sa, 28.01. 7:00 0.1 l/m2 in 12 Std. Regen
Sa, 28.01. 1:00 0.0 l/m2 in 6 Std. -
Fr, 27.01. 19:00 0.0 l/m2 in 12 Std. -
Fr, 27.01. 13:00 0.0 l/m2 in 6 Std. -
Fr, 27.01. 7:00 0.1 l/m2 in 12 Std. Schnee
Fr, 27.01. 1:00 0.1 l/m2 in 6 Std. Schnee, Sprühregen
Do, 26.01. 19:00 0.1 l/m2 in 12 Std. -
Do, 26.01. 13:00 0.1 l/m2 in 6 Std. Schnee, Sprühregen
Ortszeit Niederschlagsmenge Niederschlagsart
Sa, 28.01. 10:30 0.0 l/m2 in 30 Min -
Sa, 28.01. 10:20 keine Meldung -
Sa, 28.01. 10:10 keine Meldung -
Sa, 28.01. 10:00 0.0 l/m2 in 1 Std. -
Sa, 28.01. 9:50 keine Meldung -
Sa, 28.01. 9:40 keine Meldung -
Sa, 28.01. 9:30 0.0 l/m2 in 30 Min -
Sa, 28.01. 9:00 0.0 l/m2 in 1 Std. -
Sa, 28.01. 8:30 0.0 l/m2 in 30 Min -
Sa, 28.01. 8:00 0.0 l/m2 in 1 Std. -
Sa, 28.01. 7:30 0.0 l/m2 in 30 Min -
Ortszeit Stärke Spitze Richtung
km/h Bft. km/h Grad Sektor
Sa, 28.01. 7:00 15 3 26 360° N
Sa, 28.01. 1:00 11 2 22 330° NW
Fr, 27.01. 19:00 11 2 29 350° N
Fr, 27.01. 13:00 11 2 18 330° NW
Fr, 27.01. 7:00 4 1 11 300° NW
Fr, 27.01. 1:00 6 1 15 320° NW
Do, 26.01. 19:00 7 2 20 310° NW
Do, 26.01. 13:00 11 2 18 310° NW
Ortszeit Stärke Spitze Richtung
km/h Bft. km/h Grad Sektor
Sa, 28.01. 10:30 11 2 18 340° N
Sa, 28.01. 10:20 11 2 - 340° N
Sa, 28.01. 10:10 11 2 - 330° NW
Sa, 28.01. 10:00 11 2 22 340° N
Sa, 28.01. 9:50 11 2 - 340° N
Sa, 28.01. 9:40 13 3 - 340° N
Sa, 28.01. 9:30 11 2 22 340° N
Sa, 28.01. 9:00 15 3 24 350° N
Sa, 28.01. 8:30 17 3 24 350° N
Sa, 28.01. 8:00 14 3 25 340° N
Sa, 28.01. 7:30 14 3 22 350° N
Ortszeit Untergrenze Bedeckung Gattung
total tief tief mittel hoch
Sa, 28.01. 7:00 720 m 8/8 8/8 - - -
Sa, 28.01. 1:00 630 m 8/8 8/8 - - -
Fr, 27.01. 19:00 780 m 8/8 8/8 - - -
Fr, 27.01. 13:00 690 m 8/8 8/8 - - -
Fr, 27.01. 7:00 540 m 8/8 8/8 - - -
Fr, 27.01. 1:00 240 m 8/8 8/8 - - -
Do, 26.01. 19:00 510 m 8/8 8/8 - - -
Do, 26.01. 13:00 450 m 8/8 8/8 - - -
Ortszeit Bedeckungsgrad in Achtel und Wolkenuntergrenze
Sa, 28.01. 10:30 7(630m) 8(870m)
Sa, 28.01. 10:20 7(630m) 8(870m)
Sa, 28.01. 10:10 7
Sa, 28.01. 10:00 8(630m)
Sa, 28.01. 9:50 8(630m)
Sa, 28.01. 9:40 8
Sa, 28.01. 9:30 8(630m)
Sa, 28.01. 9:00 8(600m)
Sa, 28.01. 8:30 8(630m)
Sa, 28.01. 8:00 7(690m)
Sa, 28.01. 7:30 6(750m) 8(990m)
Ortszeit Luftdruck NN (hPa) Tendenz (hPa in 3 Std.)
Sa, 28.01. 7:00 1027 + 1,0
Sa, 28.01. 1:00 1026 + 0,3
Fr, 27.01. 19:00 1024 + 0,9
Fr, 27.01. 13:00 1023 0,0
Fr, 27.01. 7:00 1022 + 0,6
Fr, 27.01. 1:00 1022 - 0,9
Do, 26.01. 19:00 1023 + 0,3
Do, 26.01. 13:00 1023 - 0,8
Ortszeit Luftdruck NN (hPa) Tendenz (hPa in 3 Std.)
Sa, 28.01. 10:30 1028 + 1,2
Sa, 28.01. 10:20 1028 keine Meldung
Sa, 28.01. 10:10 1028 keine Meldung
Sa, 28.01. 10:00 1028 + 1,3
Sa, 28.01. 9:50 1028 keine Meldung
Sa, 28.01. 9:40 1028 keine Meldung
Sa, 28.01. 9:30 1028 + 1,4
Sa, 28.01. 9:00 1028 + 1,5
Sa, 28.01. 8:30 1028 + 1,5
Sa, 28.01. 8:00 1027 + 1,4
Sa, 28.01. 7:30 1027 + 1,1
Ortszeit Schneehöhe (cm)
Sa, 28.01. 7:00 0
Sa, 28.01. 1:00 0
Fr, 27.01. 19:00 0
Fr, 27.01. 13:00 0
Fr, 27.01. 7:00 0
Fr, 27.01. 1:00 0
Do, 26.01. 19:00 0
Do, 26.01. 13:00 0
Ortszeit Schneehöhe (cm)
Sa, 28.01. 10:30 0
Sa, 28.01. 10:20 0
Sa, 28.01. 10:10 0
Sa, 28.01. 10:00 0
Sa, 28.01. 9:50 0
Sa, 28.01. 9:40 0
Sa, 28.01. 9:30 0
Sa, 28.01. 9:00 0
Sa, 28.01. 8:30 0
Sa, 28.01. 8:00 0
Sa, 28.01. 7:30 0
Link zu dieser Seite / Seite empfehlen

Das Wetter in ...